Terminal Aerodrome Forecast
Issued by NWS Flagstaff, AZ

Home | Current Version | Previous Version | Text Only | Print | Product List | Glossary On
Versions: 1 2 3 4 5 6 7 8 9 10 11 12 13 14 15
000
FTUS45 KFGZ 282320
TAFINW
TAF
KINW 282320Z 2900/2924 16010KT P6SM SCT070 BKN090
      TEMPO 2900/2902 VRB10G20KT TSRA BKN070CB
     FM290300 VRB05KT P6SM BKN100
     FM291800 19010KT P6SM VCTS SCT025CB BKN060=

USA.gov is the U.S. government's official web portal to all federal, state and local government web resources and services.